sensor_id;sensor_type;location;lat;lon;timestamp;temperature;humidity
1680;DHT22;838;51.794;12.258;2023-07-09T00:01:55;20.90;1.00
1680;DHT22;838;51.794;12.258;2023-07-09T00:04:20;20.90;1.00
1680;DHT22;838;51.794;12.258;2023-07-09T00:06:46;20.80;1.00
1680;DHT22;838;51.794;12.258;2023-07-09T00:09:20;20.90;1.00
1680;DHT22;838;51.794;12.258;2023-07-09T00:11:46;20.80;1.00
1680;DHT22;838;51.794;12.258;2023-07-09T00:14:14;20.80;1.00
1680;DHT22;838;51.794;12.258;2023-07-09T00:16:41;20.90;1.00
1680;DHT22;838;51.794;12.258;2023-07-09T00:19:11;21.10;1.00
1680;DHT22;838;51.794;12.258;2023-07-09T00:21:39;21.00;1.00
1680;DHT22;838;51.794;12.258;2023-07-09T00:24:06;20.70;1.00
1680;DHT22;838;51.794;12.258;2023-07-09T00:26:32;20.40;1.00
1680;DHT22;838;51.794;12.258;2023-07-09T00:29:01;20.30;1.00
1680;DHT22;838;51.794;12.258;2023-07-09T00:31:27;20.40;1.00
1680;DHT22;838;51.794;12.258;2023-07-09T00:33:53;20.40;1.00
1680;DHT22;838;51.794;12.258;2023-07-09T00:36:29;20.30;1.00
1680;DHT22;838;51.794;12.258;2023-07-09T00:38:57;20.10;1.00
1680;DHT22;838;51.794;12.258;2023-07-09T00:41:33;20.10;1.00
1680;DHT22;838;51.794;12.258;2023-07-09T00:49:12;20.20;1.00
1680;DHT22;838;51.794;12.258;2023-07-09T00:51:45;20.30;1.00
1680;DHT22;838;51.794;12.258;2023-07-09T00:54:32;20.40;1.00
1680;DHT22;838;51.794;12.258;2023-07-09T00:57:16;20.60;1.00
1680;DHT22;838;51.794;12.258;2023-07-09T01:00:03;20.90;1.00
1680;DHT22;838;51.794;12.258;2023-07-09T01:02:40;21.10;1.00
1680;DHT22;838;51.794;12.258;2023-07-09T01:05:12;21.20;1.00
1680;DHT22;838;51.794;12.258;2023-07-09T01:07:39;21.20;1.00
1680;DHT22;838;51.794;12.258;2023-07-09T01:10:05;21.20;1.00
1680;DHT22;838;51.794;12.258;2023-07-09T01:12:31;21.20;1.00
1680;DHT22;838;51.794;12.258;2023-07-09T01:14:59;21.10;1.00
1680;DHT22;838;51.794;12.258;2023-07-09T01:17:27;21.40;1.00
1680;DHT22;838;51.794;12.258;2023-07-09T01:19:54;21.50;1.00
1680;DHT22;838;51.794;12.258;2023-07-09T01:22:22;21.60;1.00
1680;DHT22;838;51.794;12.258;2023-07-09T01:27:39;21.70;1.00
1680;DHT22;838;51.794;12.258;2023-07-09T01:30:11;21.60;1.00
1680;DHT22;838;51.794;12.258;2023-07-09T01:32:40;21.50;1.00
1680;DHT22;838;51.794;12.258;2023-07-09T01:35:13;21.30;1.00
1680;DHT22;838;51.794;12.258;2023-07-09T01:37:41;21.20;1.00
1680;DHT22;838;51.794;12.258;2023-07-09T01:40:08;21.20;1.00
1680;DHT22;838;51.794;12.258;2023-07-09T01:42:35;21.00;1.00
1680;DHT22;838;51.794;12.258;2023-07-09T01:45:05;20.90;1.00
1680;DHT22;838;51.794;12.258;2023-07-09T01:47:31;20.90;1.00
1680;DHT22;838;51.794;12.258;2023-07-09T01:49:57;21.00;1.00
1680;DHT22;838;51.794;12.258;2023-07-09T01:52:28;21.00;1.00
1680;DHT22;838;51.794;12.258;2023-07-09T01:54:55;20.80;1.00
1680;DHT22;838;51.794;12.258;2023-07-09T01:57:28;20.50;1.00
1680;DHT22;838;51.794;12.258;2023-07-09T02:00:06;20.40;1.00
1680;DHT22;838;51.794;12.258;2023-07-09T02:02:36;20.40;1.00
1680;DHT22;838;51.794;12.258;2023-07-09T02:05:05;20.50;1.00
1680;DHT22;838;51.794;12.258;2023-07-09T02:07:31;20.60;1.00
1680;DHT22;838;51.794;12.258;2023-07-09T02:09:58;20.60;1.00
1680;DHT22;838;51.794;12.258;2023-07-09T02:12:24;20.60;1.00
1680;DHT22;838;51.794;12.258;2023-07-09T02:14:50;20.80;1.00
1680;DHT22;838;51.794;12.258;2023-07-09T02:17:17;20.90;1.00
1680;DHT22;838;51.794;12.258;2023-07-09T02:19:43;20.80;1.00
1680;DHT22;838;51.794;12.258;2023-07-09T02:22:09;20.80;1.00
1680;DHT22;838;51.794;12.258;2023-07-09T02:24:35;20.80;1.00
1680;DHT22;838;51.794;12.258;2023-07-09T02:27:05;20.70;1.00
1680;DHT22;838;51.794;12.258;2023-07-09T02:29:32;20.60;1.00
1680;DHT22;838;51.794;12.258;2023-07-09T02:31:59;20.70;1.00
1680;DHT22;838;51.794;12.258;2023-07-09T02:34:25;20.70;1.00
1680;DHT22;838;51.794;12.258;2023-07-09T02:36:52;20.70;1.00
1680;DHT22;838;51.794;12.258;2023-07-09T02:39:19;20.50;1.00
1680;DHT22;838;51.794;12.258;2023-07-09T02:41:45;20.50;1.00
1680;DHT22;838;51.794;12.258;2023-07-09T02:44:12;20.30;1.00
1680;DHT22;838;51.794;12.258;2023-07-09T02:46:39;20.20;1.00
1680;DHT22;838;51.794;12.258;2023-07-09T02:49:05;20.00;1.00
1680;DHT22;838;51.794;12.258;2023-07-09T02:51:31;19.90;1.00
1680;DHT22;838;51.794;12.258;2023-07-09T02:54:00;19.80;1.10
1680;DHT22;838;51.794;12.258;2023-07-09T02:56:26;19.60;1.90
1680;DHT22;838;51.794;12.258;2023-07-09T02:58:52;19.50;3.50
1680;DHT22;838;51.794;12.258;2023-07-09T03:01:18;19.50;3.60
1680;DHT22;838;51.794;12.258;2023-07-09T03:03:54;19.60;2.70
1680;DHT22;838;51.794;12.258;2023-07-09T03:06:21;19.60;2.50
1680;DHT22;838;51.794;12.258;2023-07-09T03:08:47;19.60;2.70
1680;DHT22;838;51.794;12.258;2023-07-09T03:11:14;19.60;2.70
1680;DHT22;838;51.794;12.258;2023-07-09T03:13:40;19.60;2.70
1680;DHT22;838;51.794;12.258;2023-07-09T03:16:06;19.60;2.70
1680;DHT22;838;51.794;12.258;2023-07-09T03:18:32;19.70;2.70
1680;DHT22;838;51.794;12.258;2023-07-09T03:20:58;19.60;3.20
1680;DHT22;838;51.794;12.258;2023-07-09T03:23:24;19.60;2.90
1680;DHT22;838;51.794;12.258;2023-07-09T03:25:50;19.60;3.50
1680;DHT22;838;51.794;12.258;2023-07-09T03:28:18;19.60;3.30
1680;DHT22;838;51.794;12.258;2023-07-09T03:30:45;19.70;3.30
1680;DHT22;838;51.794;12.258;2023-07-09T03:33:13;19.70;3.20
1680;DHT22;838;51.794;12.258;2023-07-09T03:35:39;19.60;4.60
1680;DHT22;838;51.794;12.258;2023-07-09T03:38:06;19.60;5.20
1680;DHT22;838;51.794;12.258;2023-07-09T03:40:33;19.70;4.90
1680;DHT22;838;51.794;12.258;2023-07-09T03:42:59;19.60;5.00
1680;DHT22;838;51.794;12.258;2023-07-09T03:45:24;19.50;6.60
1680;DHT22;838;51.794;12.258;2023-07-09T03:47:50;19.20;8.10
1680;DHT22;838;51.794;12.258;2023-07-09T03:50:16;19.00;8.60
1680;DHT22;838;51.794;12.258;2023-07-09T03:52:42;18.70;11.00
1680;DHT22;838;51.794;12.258;2023-07-09T03:55:08;18.60;13.00
1680;DHT22;838;51.794;12.258;2023-07-09T03:57:35;18.50;13.70
1680;DHT22;838;51.794;12.258;2023-07-09T04:00:03;18.50;14.50
1680;DHT22;838;51.794;12.258;2023-07-09T04:02:30;18.40;15.20
1680;DHT22;838;51.794;12.258;2023-07-09T04:04:55;18.40;16.70
1680;DHT22;838;51.794;12.258;2023-07-09T04:07:21;18.20;17.50
1680;DHT22;838;51.794;12.258;2023-07-09T04:09:48;18.10;17.80
1680;DHT22;838;51.794;12.258;2023-07-09T04:12:14;18.10;19.10
1680;DHT22;838;51.794;12.258;2023-07-09T04:14:40;18.10;19.50
1680;DHT22;838;51.794;12.258;2023-07-09T04:17:06;18.10;19.70
1680;DHT22;838;51.794;12.258;2023-07-09T04:19:32;18.30;19.70
1680;DHT22;838;51.794;12.258;2023-07-09T04:21:58;18.20;20.30
1680;DHT22;838;51.794;12.258;2023-07-09T04:24:23;18.20;20.30
1680;DHT22;838;51.794;12.258;2023-07-09T04:26:49;18.20;20.10
1680;DHT22;838;51.794;12.258;2023-07-09T04:29:14;18.30;20.50
1680;DHT22;838;51.794;12.258;2023-07-09T04:31:41;18.30;20.10
1680;DHT22;838;51.794;12.258;2023-07-09T04:34:07;18.40;20.20
1680;DHT22;838;51.794;12.258;2023-07-09T04:36:33;18.50;20.20
1680;DHT22;838;51.794;12.258;2023-07-09T04:38:59;18.50;18.60
1680;DHT22;838;51.794;12.258;2023-07-09T04:41:25;18.60;18.80
1680;DHT22;838;51.794;12.258;2023-07-09T04:43:51;18.70;18.50
1680;DHT22;838;51.794;12.258;2023-07-09T04:46:16;18.90;19.10
1680;DHT22;838;51.794;12.258;2023-07-09T04:48:42;19.00;18.70
1680;DHT22;838;51.794;12.258;2023-07-09T04:51:08;19.00;16.80
1680;DHT22;838;51.794;12.258;2023-07-09T04:53:37;19.10;17.00
1680;DHT22;838;51.794;12.258;2023-07-09T04:56:03;19.10;17.20
1680;DHT22;838;51.794;12.258;2023-07-09T04:58:30;19.30;15.90
1680;DHT22;838;51.794;12.258;2023-07-09T05:01:00;19.40;14.80
1680;DHT22;838;51.794;12.258;2023-07-09T05:03:26;19.40;14.80
1680;DHT22;838;51.794;12.258;2023-07-09T05:05:52;19.50;15.00
1680;DHT22;838;51.794;12.258;2023-07-09T05:08:18;19.80;14.50
1680;DHT22;838;51.794;12.258;2023-07-09T05:10:46;19.80;12.70
1680;DHT22;838;51.794;12.258;2023-07-09T05:13:13;20.10;12.10
1680;DHT22;838;51.794;12.258;2023-07-09T05:15:43;20.30;12.40
1680;DHT22;838;51.794;12.258;2023-07-09T05:18:13;20.40;11.20
1680;DHT22;838;51.794;12.258;2023-07-09T05:20:39;20.70;9.80
1680;DHT22;838;51.794;12.258;2023-07-09T05:23:05;20.70;7.50
1680;DHT22;838;51.794;12.258;2023-07-09T05:25:31;20.80;7.80
1680;DHT22;838;51.794;12.258;2023-07-09T05:27:57;20.90;5.70
1680;DHT22;838;51.794;12.258;2023-07-09T05:30:23;21.00;5.90
1680;DHT22;838;51.794;12.258;2023-07-09T05:32:54;21.20;7.90
1680;DHT22;838;51.794;12.258;2023-07-09T05:35:23;21.40;7.10
1680;DHT22;838;51.794;12.258;2023-07-09T05:37:51;21.70;5.70
1680;DHT22;838;51.794;12.258;2023-07-09T05:40:17;22.10;4.40
1680;DHT22;838;51.794;12.258;2023-07-09T05:42:42;22.50;2.20
1680;DHT22;838;51.794;12.258;2023-07-09T05:45:08;22.80;1.00
1680;DHT22;838;51.794;12.258;2023-07-09T05:47:34;22.80;1.00
1680;DHT22;838;51.794;12.258;2023-07-09T05:50:00;22.90;1.00
1680;DHT22;838;51.794;12.258;2023-07-09T05:52:27;23.10;1.00
1680;DHT22;838;51.794;12.258;2023-07-09T05:54:56;23.20;1.00
1680;DHT22;838;51.794;12.258;2023-07-09T05:57:22;23.20;1.00
1680;DHT22;838;51.794;12.258;2023-07-09T05:59:48;23.30;1.00
1680;DHT22;838;51.794;12.258;2023-07-09T06:02:16;23.60;1.00
1680;DHT22;838;51.794;12.258;2023-07-09T06:04:42;23.60;1.00
1680;DHT22;838;51.794;12.258;2023-07-09T06:07:08;23.70;1.00
1680;DHT22;838;51.794;12.258;2023-07-09T06:09:35;23.80;1.00
1680;DHT22;838;51.794;12.258;2023-07-09T06:12:02;23.90;1.00
1680;DHT22;838;51.794;12.258;2023-07-09T06:14:28;24.10;1.00
1680;DHT22;838;51.794;12.258;2023-07-09T06:16:57;24.40;1.00
1680;DHT22;838;51.794;12.258;2023-07-09T06:19:23;24.80;1.00
1680;DHT22;838;51.794;12.258;2023-07-09T06:21:48;25.00;1.00
1680;DHT22;838;51.794;12.258;2023-07-09T06:24:17;25.00;1.00
1680;DHT22;838;51.794;12.258;2023-07-09T06:26:46;25.00;1.00
1680;DHT22;838;51.794;12.258;2023-07-09T06:29:14;25.00;1.00
1680;DHT22;838;51.794;12.258;2023-07-09T06:31:40;25.20;1.00
1680;DHT22;838;51.794;12.258;2023-07-09T06:34:08;25.30;1.00
1680;DHT22;838;51.794;12.258;2023-07-09T06:36:37;25.40;1.00
1680;DHT22;838;51.794;12.258;2023-07-09T06:39:06;25.80;1.00
1680;DHT22;838;51.794;12.258;2023-07-09T06:41:32;26.20;1.00
1680;DHT22;838;51.794;12.258;2023-07-09T06:44:07;26.40;1.00
1680;DHT22;838;51.794;12.258;2023-07-09T06:46:33;26.40;1.00
1680;DHT22;838;51.794;12.258;2023-07-09T06:49:00;26.40;1.00
1680;DHT22;838;51.794;12.258;2023-07-09T06:51:26;26.40;1.00
1680;DHT22;838;51.794;12.258;2023-07-09T06:53:52;26.50;1.00
1680;DHT22;838;51.794;12.258;2023-07-09T06:56:18;26.20;1.00
1680;DHT22;838;51.794;12.258;2023-07-09T06:58:43;26.10;1.00
1680;DHT22;838;51.794;12.258;2023-07-09T07:01:12;26.00;1.00
1680;DHT22;838;51.794;12.258;2023-07-09T07:03:38;26.20;1.00
1680;DHT22;838;51.794;12.258;2023-07-09T07:06:04;26.40;1.00
1680;DHT22;838;51.794;12.258;2023-07-09T07:08:32;26.60;1.00
1680;DHT22;838;51.794;12.258;2023-07-09T07:10:59;26.70;1.00
1680;DHT22;838;51.794;12.258;2023-07-09T07:13:33;26.70;1.00
1680;DHT22;838;51.794;12.258;2023-07-09T07:16:01;27.00;1.00
1680;DHT22;838;51.794;12.258;2023-07-09T07:18:30;27.30;1.00
1680;DHT22;838;51.794;12.258;2023-07-09T07:20:55;27.30;1.00
1680;DHT22;838;51.794;12.258;2023-07-09T07:23:21;27.50;1.00
1680;DHT22;838;51.794;12.258;2023-07-09T07:25:48;27.50;1.00
1680;DHT22;838;51.794;12.258;2023-07-09T07:28:17;27.70;1.00
1680;DHT22;838;51.794;12.258;2023-07-09T07:31:01;28.00;1.00
1680;DHT22;838;51.794;12.258;2023-07-09T07:33:33;28.20;1.00
1680;DHT22;838;51.794;12.258;2023-07-09T07:36:23;28.80;1.00
1680;DHT22;838;51.794;12.258;2023-07-09T07:38:58;29.10;1.00
1680;DHT22;838;51.794;12.258;2023-07-09T07:41:25;29.20;1.00
1680;DHT22;838;51.794;12.258;2023-07-09T07:43:54;29.30;1.00
1680;DHT22;838;51.794;12.258;2023-07-09T07:46:23;29.30;1.00
1680;DHT22;838;51.794;12.258;2023-07-09T07:48:58;30.10;1.00
1680;DHT22;838;51.794;12.258;2023-07-09T07:59:03;31.70;1.00
1680;DHT22;838;51.794;12.258;2023-07-09T08:02:12;31.90;1.00
1680;DHT22;838;51.794;12.258;2023-07-09T08:05:13;32.40;1.00
1680;DHT22;838;51.794;12.258;2023-07-09T08:07:57;31.20;1.00
1680;DHT22;838;51.794;12.258;2023-07-09T08:11:08;31.00;1.00
1680;DHT22;838;51.794;12.258;2023-07-09T08:14:01;30.90;1.00
1680;DHT22;838;51.794;12.258;2023-07-09T08:17:08;30.30;1.00
1680;DHT22;838;51.794;12.258;2023-07-09T08:20:11;30.10;1.00
1680;DHT22;838;51.794;12.258;2023-07-09T08:29:25;30.50;1.00
1680;DHT22;838;51.794;12.258;2023-07-09T08:31:57;30.30;1.00
1680;DHT22;838;51.794;12.258;2023-07-09T08:34:55;30.20;1.00
1680;DHT22;838;51.794;12.258;2023-07-09T08:38:14;30.50;1.00
1680;DHT22;838;51.794;12.258;2023-07-09T09:02:05;31.50;1.00
1680;DHT22;838;51.794;12.258;2023-07-09T09:05:11;31.20;1.00
1680;DHT22;838;51.794;12.258;2023-07-09T09:08:15;31.20;1.00
1680;DHT22;838;51.794;12.258;2023-07-09T09:17:35;31.30;1.00
1680;DHT22;838;51.794;12.258;2023-07-09T09:20:41;31.50;1.00
1680;DHT22;838;51.794;12.258;2023-07-09T09:26:51;33.70;1.00
1680;DHT22;838;51.794;12.258;2023-07-09T09:29:24;35.10;1.00
1680;DHT22;838;51.794;12.258;2023-07-09T09:32:28;36.60;1.00
1680;DHT22;838;51.794;12.258;2023-07-09T09:38:35;37.40;1.00
1680;DHT22;838;51.794;12.258;2023-07-09T09:41:15;37.10;1.00
1680;DHT22;838;51.794;12.258;2023-07-09T09:50:20;38.50;1.00
1680;DHT22;838;51.794;12.258;2023-07-09T09:52:52;39.90;1.00
1680;DHT22;838;51.794;12.258;2023-07-09T09:55:31;41.10;1.00
1680;DHT22;838;51.794;12.258;2023-07-09T09:58:11;41.80;1.00
1680;DHT22;838;51.794;12.258;2023-07-09T10:01:16;40.40;1.00
1680;DHT22;838;51.794;12.258;2023-07-09T10:04:04;39.90;1.00
1680;DHT22;838;51.794;12.258;2023-07-09T10:06:41;39.50;1.00
1680;DHT22;838;51.794;12.258;2023-07-09T10:11:55;39.00;1.00
1680;DHT22;838;51.794;12.258;2023-07-09T10:14:33;38.30;1.00
1680;DHT22;838;51.794;12.258;2023-07-09T10:17:15;36.20;1.00
1680;DHT22;838;51.794;12.258;2023-07-09T10:20:24;35.70;1.00
1680;DHT22;838;51.794;12.258;2023-07-09T10:23:19;35.60;1.00
1680;DHT22;838;51.794;12.258;2023-07-09T10:39:53;34.90;1.00
1680;DHT22;838;51.794;12.258;2023-07-09T10:42:37;35.30;1.00
1680;DHT22;838;51.794;12.258;2023-07-09T10:45:33;35.50;1.00
1680;DHT22;838;51.794;12.258;2023-07-09T10:48:16;35.60;1.00
1680;DHT22;838;51.794;12.258;2023-07-09T10:54:10;35.30;1.00
1680;DHT22;838;51.794;12.258;2023-07-09T10:57:44;35.60;1.00
1680;DHT22;838;51.794;12.258;2023-07-09T10:59:54;35.70;1.00
1680;DHT22;838;51.794;12.258;2023-07-09T11:02:31;35.90;1.00
1680;DHT22;838;51.794;12.258;2023-07-09T11:05:28;36.10;1.00
1680;DHT22;838;51.794;12.258;2023-07-09T11:08:11;36.10;1.00
1680;DHT22;838;51.794;12.258;2023-07-09T11:10:59;36.10;1.00
1680;DHT22;838;51.794;12.258;2023-07-09T11:14:00;36.10;1.00
1680;DHT22;838;51.794;12.258;2023-07-09T11:19:46;36.40;1.00
1680;DHT22;838;51.794;12.258;2023-07-09T11:22:17;36.80;1.00
1680;DHT22;838;51.794;12.258;2023-07-09T11:25:04;37.00;1.00
1680;DHT22;838;51.794;12.258;2023-07-09T11:27:34;37.10;1.00
1680;DHT22;838;51.794;12.258;2023-07-09T11:30:45;37.20;1.00
1680;DHT22;838;51.794;12.258;2023-07-09T11:33:29;36.80;1.00
1680;DHT22;838;51.794;12.258;2023-07-09T11:36:12;36.60;1.00
1680;DHT22;838;51.794;12.258;2023-07-09T11:38:46;36.90;1.00
1680;DHT22;838;51.794;12.258;2023-07-09T11:41:43;37.00;1.00
1680;DHT22;838;51.794;12.258;2023-07-09T11:44:25;37.10;1.00
1680;DHT22;838;51.794;12.258;2023-07-09T11:50:21;37.00;1.00
1680;DHT22;838;51.794;12.258;2023-07-09T11:56:08;37.50;1.00
1680;DHT22;838;51.794;12.258;2023-07-09T11:58:36;37.40;1.00
1680;DHT22;838;51.794;12.258;2023-07-09T12:01:16;37.10;1.00
1680;DHT22;838;51.794;12.258;2023-07-09T12:03:44;36.90;1.00
1680;DHT22;838;51.794;12.258;2023-07-09T12:06:23;36.70;1.00
1680;DHT22;838;51.794;12.258;2023-07-09T12:08:51;36.10;1.00
1680;DHT22;838;51.794;12.258;2023-07-09T12:11:28;35.90;1.00
1680;DHT22;838;51.794;12.258;2023-07-09T12:14:18;35.90;1.00
1680;DHT22;838;51.794;12.258;2023-07-09T12:16:47;36.00;1.00
1680;DHT22;838;51.794;12.258;2023-07-09T12:19:14;36.40;1.00
1680;DHT22;838;51.794;12.258;2023-07-09T12:21:52;36.50;1.00
1680;DHT22;838;51.794;12.258;2023-07-09T12:24:42;36.50;1.00
1680;DHT22;838;51.794;12.258;2023-07-09T12:27:27;36.70;1.00
1680;DHT22;838;51.794;12.258;2023-07-09T12:30:09;36.60;1.00
1680;DHT22;838;51.794;12.258;2023-07-09T12:32:43;36.50;1.00
1680;DHT22;838;51.794;12.258;2023-07-09T12:35:13;36.30;1.00
1680;DHT22;838;51.794;12.258;2023-07-09T12:37:44;36.10;1.00
1680;DHT22;838;51.794;12.258;2023-07-09T12:40:43;36.20;1.00
1680;DHT22;838;51.794;12.258;2023-07-09T12:43:11;35.80;1.00
1680;DHT22;838;51.794;12.258;2023-07-09T12:45:37;35.80;1.00
1680;DHT22;838;51.794;12.258;2023-07-09T12:48:04;36.00;1.00
1680;DHT22;838;51.794;12.258;2023-07-09T12:50:35;35.90;1.00
1680;DHT22;838;51.794;12.258;2023-07-09T12:53:18;35.90;1.00
1680;DHT22;838;51.794;12.258;2023-07-09T12:55:55;35.70;1.00
1680;DHT22;838;51.794;12.258;2023-07-09T12:58:47;35.70;1.00
1680;DHT22;838;51.794;12.258;2023-07-09T13:01:17;35.80;1.00
1680;DHT22;838;51.794;12.258;2023-07-09T13:04:09;36.00;1.00
1680;DHT22;838;51.794;12.258;2023-07-09T13:07:32;36.20;1.00
1680;DHT22;838;51.794;12.258;2023-07-09T13:10:44;35.90;1.00
1680;DHT22;838;51.794;12.258;2023-07-09T13:13:53;35.90;1.00
1680;DHT22;838;51.794;12.258;2023-07-09T13:16:39;35.40;1.00
1680;DHT22;838;51.794;12.258;2023-07-09T13:19:36;35.00;1.00
1680;DHT22;838;51.794;12.258;2023-07-09T13:22:43;35.00;1.00
1680;DHT22;838;51.794;12.258;2023-07-09T13:25:39;35.00;1.00
1680;DHT22;838;51.794;12.258;2023-07-09T13:28:25;34.90;1.00
1680;DHT22;838;51.794;12.258;2023-07-09T13:30:58;35.30;1.00
1680;DHT22;838;51.794;12.258;2023-07-09T13:33:33;35.60;1.00
1680;DHT22;838;51.794;12.258;2023-07-09T13:35:59;35.90;1.00
1680;DHT22;838;51.794;12.258;2023-07-09T13:41:19;36.20;1.00
1680;DHT22;838;51.794;12.258;2023-07-09T13:43:52;36.30;1.00
1680;DHT22;838;51.794;12.258;2023-07-09T13:46:38;36.70;1.00
1680;DHT22;838;51.794;12.258;2023-07-09T13:49:39;36.90;1.00
1680;DHT22;838;51.794;12.258;2023-07-09T13:52:35;37.10;1.00
1680;DHT22;838;51.794;12.258;2023-07-09T13:55:15;37.20;1.00
1680;DHT22;838;51.794;12.258;2023-07-09T13:58:08;37.20;1.00
1680;DHT22;838;51.794;12.258;2023-07-09T14:08:04;37.10;1.00
1680;DHT22;838;51.794;12.258;2023-07-09T14:10:42;37.20;1.00
1680;DHT22;838;51.794;12.258;2023-07-09T14:13:24;37.10;1.00
1680;DHT22;838;51.794;12.258;2023-07-09T14:15:56;36.90;1.00
1680;DHT22;838;51.794;12.258;2023-07-09T14:18:34;37.00;1.00
1680;DHT22;838;51.794;12.258;2023-07-09T14:21:17;37.10;1.00
1680;DHT22;838;51.794;12.258;2023-07-09T14:31:24;37.10;1.00
1680;DHT22;838;51.794;12.258;2023-07-09T14:34:29;37.20;1.00
1680;DHT22;838;51.794;12.258;2023-07-09T14:37:25;37.30;1.00
1680;DHT22;838;51.794;12.258;2023-07-09T14:40:27;37.00;1.00
1680;DHT22;838;51.794;12.258;2023-07-09T14:42:49;37.10;1.00
1680;DHT22;838;51.794;12.258;2023-07-09T14:45:29;37.20;1.00
1680;DHT22;838;51.794;12.258;2023-07-09T14:48:04;37.10;1.00
1680;DHT22;838;51.794;12.258;2023-07-09T14:50:47;37.00;1.00
1680;DHT22;838;51.794;12.258;2023-07-09T14:53:28;37.20;1.00
1680;DHT22;838;51.794;12.258;2023-07-09T14:59:13;37.40;1.00
1680;DHT22;838;51.794;12.258;2023-07-09T15:01:42;37.00;1.00
1680;DHT22;838;51.794;12.258;2023-07-09T15:04:29;36.40;1.00
1680;DHT22;838;51.794;12.258;2023-07-09T15:06:56;36.50;1.00
1680;DHT22;838;51.794;12.258;2023-07-09T15:09:25;36.70;1.00
1680;DHT22;838;51.794;12.258;2023-07-09T15:12:18;36.80;1.00
1680;DHT22;838;51.794;12.258;2023-07-09T15:23:42;37.10;1.00
1680;DHT22;838;51.794;12.258;2023-07-09T15:26:20;37.30;1.00
1680;DHT22;838;51.794;12.258;2023-07-09T15:28:49;37.50;1.00
1680;DHT22;838;51.794;12.258;2023-07-09T15:31:18;37.70;1.00
1680;DHT22;838;51.794;12.258;2023-07-09T15:33:56;37.70;1.00
1680;DHT22;838;51.794;12.258;2023-07-09T15:36:24;37.60;1.00
1680;DHT22;838;51.794;12.258;2023-07-09T15:38:50;37.80;1.00
1680;DHT22;838;51.794;12.258;2023-07-09T15:41:19;37.70;1.00
1680;DHT22;838;51.794;12.258;2023-07-09T15:44:49;37.40;1.00
1680;DHT22;838;51.794;12.258;2023-07-09T15:47:29;37.30;1.00
1680;DHT22;838;51.794;12.258;2023-07-09T15:53:25;37.20;1.00
1680;DHT22;838;51.794;12.258;2023-07-09T15:59:12;36.50;1.00
1680;DHT22;838;51.794;12.258;2023-07-09T16:05:56;36.50;1.00
1680;DHT22;838;51.794;12.258;2023-07-09T16:09:00;36.90;1.00
1680;DHT22;838;51.794;12.258;2023-07-09T16:15:18;37.00;1.00
1680;DHT22;838;51.794;12.258;2023-07-09T16:18:21;37.10;1.00
1680;DHT22;838;51.794;12.258;2023-07-09T16:27:16;36.80;1.00
1680;DHT22;838;51.794;12.258;2023-07-09T16:29:57;36.90;1.00
1680;DHT22;838;51.794;12.258;2023-07-09T16:36:02;37.10;1.00
1680;DHT22;838;51.794;12.258;2023-07-09T16:38:32;36.80;1.00
1680;DHT22;838;51.794;12.258;2023-07-09T16:41:11;36.80;1.00
1680;DHT22;838;51.794;12.258;2023-07-09T16:43:43;36.60;1.00
1680;DHT22;838;51.794;12.258;2023-07-09T16:46:29;36.30;1.00
1680;DHT22;838;51.794;12.258;2023-07-09T16:49:22;36.30;1.00
1680;DHT22;838;51.794;12.258;2023-07-09T16:51:46;36.50;1.00
1680;DHT22;838;51.794;12.258;2023-07-09T16:54:24;36.50;1.00
1680;DHT22;838;51.794;12.258;2023-07-09T16:56:51;36.60;1.00
1680;DHT22;838;51.794;12.258;2023-07-09T16:59:21;36.70;1.00
1680;DHT22;838;51.794;12.258;2023-07-09T17:01:53;36.80;1.00
1680;DHT22;838;51.794;12.258;2023-07-09T17:04:22;36.70;1.00
1680;DHT22;838;51.794;12.258;2023-07-09T17:06:53;36.50;1.00
1680;DHT22;838;51.794;12.258;2023-07-09T17:09:20;36.50;1.00
1680;DHT22;838;51.794;12.258;2023-07-09T17:11:58;36.30;1.00
1680;DHT22;838;51.794;12.258;2023-07-09T17:14:27;36.00;1.00
1680;DHT22;838;51.794;12.258;2023-07-09T17:17:12;35.90;1.00
1680;DHT22;838;51.794;12.258;2023-07-09T17:22:50;35.60;1.00
1680;DHT22;838;51.794;12.258;2023-07-09T17:25:32;35.50;1.00
1680;DHT22;838;51.794;12.258;2023-07-09T17:28:00;35.50;1.00
1680;DHT22;838;51.794;12.258;2023-07-09T17:30:27;35.30;1.00
1680;DHT22;838;51.794;12.258;2023-07-09T17:32:59;35.10;1.00
1680;DHT22;838;51.794;12.258;2023-07-09T17:35:34;35.00;1.00
1680;DHT22;838;51.794;12.258;2023-07-09T17:38:00;34.70;1.00
1680;DHT22;838;51.794;12.258;2023-07-09T17:40:36;34.70;1.00
1680;DHT22;838;51.794;12.258;2023-07-09T17:43:21;34.50;1.00
1680;DHT22;838;51.794;12.258;2023-07-09T17:51:40;33.50;1.00
1680;DHT22;838;51.794;12.258;2023-07-09T17:57:24;33.30;1.00
1680;DHT22;838;51.794;12.258;2023-07-09T18:00:00;33.30;1.00
1680;DHT22;838;51.794;12.258;2023-07-09T18:02:27;33.20;1.00
1680;DHT22;838;51.794;12.258;2023-07-09T18:08:10;32.80;1.00
1680;DHT22;838;51.794;12.258;2023-07-09T18:10:39;32.50;1.00
1680;DHT22;838;51.794;12.258;2023-07-09T18:13:34;32.50;1.00
1680;DHT22;838;51.794;12.258;2023-07-09T18:19:48;31.80;1.00
1680;DHT22;838;51.794;12.258;2023-07-09T18:22:20;31.10;1.00
1680;DHT22;838;51.794;12.258;2023-07-09T18:28:02;30.80;1.00
1680;DHT22;838;51.794;12.258;2023-07-09T18:30:33;30.90;1.00
1680;DHT22;838;51.794;12.258;2023-07-09T18:33:04;31.00;1.00
1680;DHT22;838;51.794;12.258;2023-07-09T18:36:00;31.00;1.00
1680;DHT22;838;51.794;12.258;2023-07-09T18:38:52;31.10;1.00
1680;DHT22;838;51.794;12.258;2023-07-09T18:41:18;31.00;1.00
1680;DHT22;838;51.794;12.258;2023-07-09T18:43:54;30.80;1.00
1680;DHT22;838;51.794;12.258;2023-07-09T18:46:20;30.70;1.00
1680;DHT22;838;51.794;12.258;2023-07-09T18:48:46;30.50;1.00
1680;DHT22;838;51.794;12.258;2023-07-09T18:51:15;30.40;1.00
1680;DHT22;838;51.794;12.258;2023-07-09T18:53:56;30.10;1.00
1680;DHT22;838;51.794;12.258;2023-07-09T18:56:25;30.00;1.00
1680;DHT22;838;51.794;12.258;2023-07-09T18:58:56;29.80;1.00
1680;DHT22;838;51.794;12.258;2023-07-09T19:01:22;29.60;1.00
1680;DHT22;838;51.794;12.258;2023-07-09T19:03:50;29.50;1.00
1680;DHT22;838;51.794;12.258;2023-07-09T19:06:25;29.40;1.00
1680;DHT22;838;51.794;12.258;2023-07-09T19:08:51;29.10;1.00
1680;DHT22;838;51.794;12.258;2023-07-09T19:11:19;28.70;1.00
1680;DHT22;838;51.794;12.258;2023-07-09T19:13:45;28.50;1.00
1680;DHT22;838;51.794;12.258;2023-07-09T19:16:42;28.40;1.00
1680;DHT22;838;51.794;12.258;2023-07-09T19:19:18;28.50;1.00
1680;DHT22;838;51.794;12.258;2023-07-09T19:21:50;28.50;1.00
1680;DHT22;838;51.794;12.258;2023-07-09T19:24:25;28.50;1.00
1680;DHT22;838;51.794;12.258;2023-07-09T19:26:52;28.40;1.00
1680;DHT22;838;51.794;12.258;2023-07-09T19:29:23;28.20;1.00
1680;DHT22;838;51.794;12.258;2023-07-09T19:31:58;28.00;1.00
1680;DHT22;838;51.794;12.258;2023-07-09T19:34:31;27.90;1.00
1680;DHT22;838;51.794;12.258;2023-07-09T19:37:02;27.80;1.00
1680;DHT22;838;51.794;12.258;2023-07-09T19:39:30;27.90;1.00
1680;DHT22;838;51.794;12.258;2023-07-09T19:42:12;27.90;1.00
1680;DHT22;838;51.794;12.258;2023-07-09T19:44:39;28.00;1.00
1680;DHT22;838;51.794;12.258;2023-07-09T19:47:08;28.10;1.00
1680;DHT22;838;51.794;12.258;2023-07-09T19:49:35;28.20;1.00
1680;DHT22;838;51.794;12.258;2023-07-09T19:52:00;28.30;1.00
1680;DHT22;838;51.794;12.258;2023-07-09T19:54:26;28.30;1.00